sensor_id;sensor_type;location;lat;lon;timestamp;P1;P2;P0
44045;PMS7003;29709;52.396;16.796;2022-11-20T00:01:34;7;6;5
44045;PMS7003;29709;52.396;16.796;2022-11-20T00:04:37;6;6;4
44045;PMS7003;29709;52.396;16.796;2022-11-20T00:07:42;7;6;3
44045;PMS7003;29709;52.396;16.796;2022-11-20T00:11:14;5;3;3
44045;PMS7003;29709;52.396;16.796;2022-11-20T00:14:19;7;6;3
44045;PMS7003;29709;52.396;16.796;2022-11-20T00:17:22;6;5;3
44045;PMS7003;29709;52.396;16.796;2022-11-20T00:20:25;6;5;4
44045;PMS7003;29709;52.396;16.796;2022-11-20T00:23:28;7;5;4
44045;PMS7003;29709;52.396;16.796;2022-11-20T00:26:31;9;7;6
44045;PMS7003;29709;52.396;16.796;2022-11-20T00:29:36;4;3;3
44045;PMS7003;29709;52.396;16.796;2022-11-20T00:32:39;5;5;4
44045;PMS7003;29709;52.396;16.796;2022-11-20T00:35:42;6;4;3
44045;PMS7003;29709;52.396;16.796;2022-11-20T00:38:45;9;6;4
44045;PMS7003;29709;52.396;16.796;2022-11-20T00:42:14;3;3;2
44045;PMS7003;29709;52.396;16.796;2022-11-20T00:45:17;3;3;3
44045;PMS7003;29709;52.396;16.796;2022-11-20T00:48:20;5;3;2
44045;PMS7003;29709;52.396;16.796;2022-11-20T00:51:24;7;4;3
44045;PMS7003;29709;52.396;16.796;2022-11-20T00:54:28;5;5;3
44045;PMS7003;29709;52.396;16.796;2022-11-20T00:57:31;5;5;3
44045;PMS7003;29709;52.396;16.796;2022-11-20T01:00:35;5;4;3
44045;PMS7003;29709;52.396;16.796;2022-11-20T01:03:39;4;4;3
44045;PMS7003;29709;52.396;16.796;2022-11-20T01:06:44;6;5;3
44045;PMS7003;29709;52.396;16.796;2022-11-20T01:10:15;7;4;3
44045;PMS7003;29709;52.396;16.796;2022-11-20T01:13:20;3;3;3
44045;PMS7003;29709;52.396;16.796;2022-11-20T01:16:35;4;1;0
44045;PMS7003;29709;52.396;16.796;2022-11-20T01:19:40;6;4;3
44045;PMS7003;29709;52.396;16.796;2022-11-20T01:22:43;4;4;3
44045;PMS7003;29709;52.396;16.796;2022-11-20T01:25:46;4;3;3
44045;PMS7003;29709;52.396;16.796;2022-11-20T01:28:49;3;2;1
44045;PMS7003;29709;52.396;16.796;2022-11-20T01:31:53;10;6;4
44045;PMS7003;29709;52.396;16.796;2022-11-20T01:35:22;10;9;7
44045;PMS7003;29709;52.396;16.796;2022-11-20T01:38:25;7;6;4
44045;PMS7003;29709;52.396;16.796;2022-11-20T01:41:28;7;7;5
44045;PMS7003;29709;52.396;16.796;2022-11-20T01:44:49;4;4;2
44045;PMS7003;29709;52.396;16.796;2022-11-20T01:47:54;6;5;2
44045;PMS7003;29709;52.396;16.796;2022-11-20T01:50:57;3;3;1
44045;PMS7003;29709;52.396;16.796;2022-11-20T01:54:03;6;3;3
44045;PMS7003;29709;52.396;16.796;2022-11-20T01:57:35;5;5;3
44045;PMS7003;29709;52.396;16.796;2022-11-20T02:00:40;3;0;0
44045;PMS7003;29709;52.396;16.796;2022-11-20T02:03:44;5;3;3
44045;PMS7003;29709;52.396;16.796;2022-11-20T02:06:48;8;6;4
44045;PMS7003;29709;52.396;16.796;2022-11-20T02:09:57;6;6;4
44045;PMS7003;29709;52.396;16.796;2022-11-20T02:13:00;8;8;6
44045;PMS7003;29709;52.396;16.796;2022-11-20T02:19:56;7;5;3
44045;PMS7003;29709;52.396;16.796;2022-11-20T02:26:13;8;6;4
44045;PMS7003;29709;52.396;16.796;2022-11-20T02:29:21;9;8;5
44045;PMS7003;29709;52.396;16.796;2022-11-20T02:32:29;6;4;2
44045;PMS7003;29709;52.396;16.796;2022-11-20T02:38:45;5;5;3
44045;PMS7003;29709;52.396;16.796;2022-11-20T02:42:13;2;1;0
44045;PMS7003;29709;52.396;16.796;2022-11-20T02:45:16;7;4;2
44045;PMS7003;29709;52.396;16.796;2022-11-20T02:48:19;5;5;3
44045;PMS7003;29709;52.396;16.796;2022-11-20T02:51:23;7;6;4
44045;PMS7003;29709;52.396;16.796;2022-11-20T02:54:26;8;4;2
44045;PMS7003;29709;52.396;16.796;2022-11-20T02:57:29;6;6;4
44045;PMS7003;29709;52.396;16.796;2022-11-20T03:00:32;6;6;5
44045;PMS7003;29709;52.396;16.796;2022-11-20T03:03:37;10;7;5
44045;PMS7003;29709;52.396;16.796;2022-11-20T03:06:40;12;10;7
44045;PMS7003;29709;52.396;16.796;2022-11-20T03:09:43;8;7;5
44045;PMS7003;29709;52.396;16.796;2022-11-20T03:13:13;6;6;5
44045;PMS7003;29709;52.396;16.796;2022-11-20T03:16:17;9;5;4
44045;PMS7003;29709;52.396;16.796;2022-11-20T03:19:23;7;6;3
44045;PMS7003;29709;52.396;16.796;2022-11-20T03:22:28;7;5;4
44045;PMS7003;29709;52.396;16.796;2022-11-20T03:25:32;2;2;2
44045;PMS7003;29709;52.396;16.796;2022-11-20T03:28:35;4;3;3
44045;PMS7003;29709;52.396;16.796;2022-11-20T03:31:39;5;4;2
44045;PMS7003;29709;52.396;16.796;2022-11-20T03:34:43;7;6;5
44045;PMS7003;29709;52.396;16.796;2022-11-20T03:37:46;6;5;3
44045;PMS7003;29709;52.396;16.796;2022-11-20T03:41:19;8;7;5
44045;PMS7003;29709;52.396;16.796;2022-11-20T03:44:23;7;6;5
44045;PMS7003;29709;52.396;16.796;2022-11-20T03:47:26;6;6;3
44045;PMS7003;29709;52.396;16.796;2022-11-20T03:50:29;9;7;5
44045;PMS7003;29709;52.396;16.796;2022-11-20T03:53:32;6;6;4
44045;PMS7003;29709;52.396;16.796;2022-11-20T03:56:36;8;7;4
44045;PMS7003;29709;52.396;16.796;2022-11-20T03:59:41;6;5;4
44045;PMS7003;29709;52.396;16.796;2022-11-20T04:02:44;1;1;0
44045;PMS7003;29709;52.396;16.796;2022-11-20T04:05:47;6;4;4
44045;PMS7003;29709;52.396;16.796;2022-11-20T04:08:50;7;6;4
44045;PMS7003;29709;52.396;16.796;2022-11-20T04:12:21;6;6;4
44045;PMS7003;29709;52.396;16.796;2022-11-20T04:15:24;7;5;4
44045;PMS7003;29709;52.396;16.796;2022-11-20T04:18:27;8;8;5
44045;PMS7003;29709;52.396;16.796;2022-11-20T04:21:30;6;5;3
44045;PMS7003;29709;52.396;16.796;2022-11-20T04:24:33;11;9;6
44045;PMS7003;29709;52.396;16.796;2022-11-20T04:27:36;4;4;1
44045;PMS7003;29709;52.396;16.796;2022-11-20T04:30:39;9;6;4
44045;PMS7003;29709;52.396;16.796;2022-11-20T04:33:42;5;5;4
44045;PMS7003;29709;52.396;16.796;2022-11-20T04:36:46;10;4;2
44045;PMS7003;29709;52.396;16.796;2022-11-20T04:39:49;8;6;4
44045;PMS7003;29709;52.396;16.796;2022-11-20T04:42:52;7;6;5
44045;PMS7003;29709;52.396;16.796;2022-11-20T04:46:20;6;6;3
44045;PMS7003;29709;52.396;16.796;2022-11-20T04:49:23;6;4;2
44045;PMS7003;29709;52.396;16.796;2022-11-20T04:52:26;8;7;5
44045;PMS7003;29709;52.396;16.796;2022-11-20T04:55:29;5;5;3
44045;PMS7003;29709;52.396;16.796;2022-11-20T04:58:33;7;6;4
44045;PMS7003;29709;52.396;16.796;2022-11-20T05:01:36;8;7;5
44045;PMS7003;29709;52.396;16.796;2022-11-20T05:04:39;6;6;3
44045;PMS7003;29709;52.396;16.796;2022-11-20T05:07:42;7;4;4
44045;PMS7003;29709;52.396;16.796;2022-11-20T05:10:45;7;5;5
44045;PMS7003;29709;52.396;16.796;2022-11-20T05:13:49;8;7;6
44045;PMS7003;29709;52.396;16.796;2022-11-20T05:17:20;3;3;2
44045;PMS7003;29709;52.396;16.796;2022-11-20T05:20:23;5;4;3
44045;PMS7003;29709;52.396;16.796;2022-11-20T05:23:27;6;6;3
44045;PMS7003;29709;52.396;16.796;2022-11-20T05:26:31;5;4;3
44045;PMS7003;29709;52.396;16.796;2022-11-20T05:29:35;4;3;3
44045;PMS7003;29709;52.396;16.796;2022-11-20T05:32:38;8;5;3
44045;PMS7003;29709;52.396;16.796;2022-11-20T05:35:41;4;3;2
44045;PMS7003;29709;52.396;16.796;2022-11-20T05:38:44;7;6;3
44045;PMS7003;29709;52.396;16.796;2022-11-20T05:41:48;6;5;4
44045;PMS7003;29709;52.396;16.796;2022-11-20T05:45:28;1;1;0
44045;PMS7003;29709;52.396;16.796;2022-11-20T05:48:31;7;5;4
44045;PMS7003;29709;52.396;16.796;2022-11-20T05:51:35;3;3;2
44045;PMS7003;29709;52.396;16.796;2022-11-20T05:54:38;6;6;4
44045;PMS7003;29709;52.396;16.796;2022-11-20T05:57:41;7;3;2
44045;PMS7003;29709;52.396;16.796;2022-11-20T06:00:44;6;4;3
44045;PMS7003;29709;52.396;16.796;2022-11-20T06:03:47;6;6;4
44045;PMS7003;29709;52.396;16.796;2022-11-20T06:06:52;8;6;4
44045;PMS7003;29709;52.396;16.796;2022-11-20T06:09:55;7;6;4
44045;PMS7003;29709;52.396;16.796;2022-11-20T06:12:58;9;6;4
44045;PMS7003;29709;52.396;16.796;2022-11-20T06:16:27;12;10;7
44045;PMS7003;29709;52.396;16.796;2022-11-20T06:19:30;9;7;5
44045;PMS7003;29709;52.396;16.796;2022-11-20T06:22:33;9;8;3
44045;PMS7003;29709;52.396;16.796;2022-11-20T06:25:40;13;9;7
44045;PMS7003;29709;52.396;16.796;2022-11-20T06:28:45;10;10;7
44045;PMS7003;29709;52.396;16.796;2022-11-20T06:31:48;11;10;7
44045;PMS7003;29709;52.396;16.796;2022-11-20T06:34:51;10;7;4
44045;PMS7003;29709;52.396;16.796;2022-11-20T06:37:55;23;18;10
44045;PMS7003;29709;52.396;16.796;2022-11-20T06:40:59;23;20;15
44045;PMS7003;29709;52.396;16.796;2022-11-20T06:44:29;12;11;8
44045;PMS7003;29709;52.396;16.796;2022-11-20T06:47:32;13;11;9
44045;PMS7003;29709;52.396;16.796;2022-11-20T06:50:38;10;10;7
44045;PMS7003;29709;52.396;16.796;2022-11-20T06:53:41;10;9;6
44045;PMS7003;29709;52.396;16.796;2022-11-20T06:56:47;8;5;3
44045;PMS7003;29709;52.396;16.796;2022-11-20T06:59:51;12;11;7
44045;PMS7003;29709;52.396;16.796;2022-11-20T07:02:54;13;10;7
44045;PMS7003;29709;52.396;16.796;2022-11-20T07:05:58;12;12;8
44045;PMS7003;29709;52.396;16.796;2022-11-20T07:09:02;9;8;4
44045;PMS7003;29709;52.396;16.796;2022-11-20T07:12:33;12;10;8
44045;PMS7003;29709;52.396;16.796;2022-11-20T07:15:36;12;8;6
44045;PMS7003;29709;52.396;16.796;2022-11-20T07:18:40;9;8;5
44045;PMS7003;29709;52.396;16.796;2022-11-20T07:21:45;9;8;6
44045;PMS7003;29709;52.396;16.796;2022-11-20T07:24:50;10;6;3
44045;PMS7003;29709;52.396;16.796;2022-11-20T07:27:58;11;10;6
44045;PMS7003;29709;52.396;16.796;2022-11-20T07:31:02;8;7;5
44045;PMS7003;29709;52.396;16.796;2022-11-20T07:34:05;12;10;6
44045;PMS7003;29709;52.396;16.796;2022-11-20T07:37:39;14;10;7
44045;PMS7003;29709;52.396;16.796;2022-11-20T07:40:42;13;9;6
44045;PMS7003;29709;52.396;16.796;2022-11-20T07:43:46;10;7;5
44045;PMS7003;29709;52.396;16.796;2022-11-20T07:46:51;11;11;8
44045;PMS7003;29709;52.396;16.796;2022-11-20T07:49:56;16;11;9
44045;PMS7003;29709;52.396;16.796;2022-11-20T07:53:02;11;9;6
44045;PMS7003;29709;52.396;16.796;2022-11-20T07:56:06;11;8;5
44045;PMS7003;29709;52.396;16.796;2022-11-20T07:59:12;14;11;9
44045;PMS7003;29709;52.396;16.796;2022-11-20T08:02:48;14;12;9
44045;PMS7003;29709;52.396;16.796;2022-11-20T08:05:54;11;10;8
44045;PMS7003;29709;52.396;16.796;2022-11-20T08:09:02;11;10;8
44045;PMS7003;29709;52.396;16.796;2022-11-20T08:12:06;9;6;3
44045;PMS7003;29709;52.396;16.796;2022-11-20T08:15:21;13;12;7
44045;PMS7003;29709;52.396;16.796;2022-11-20T08:18:26;12;9;7
44045;PMS7003;29709;52.396;16.796;2022-11-20T08:21:31;11;8;5
44045;PMS7003;29709;52.396;16.796;2022-11-20T08:25:02;12;7;3
44045;PMS7003;29709;52.396;16.796;2022-11-20T08:28:08;10;8;7
44045;PMS7003;29709;52.396;16.796;2022-11-20T08:31:12;15;12;9
44045;PMS7003;29709;52.396;16.796;2022-11-20T08:34:15;11;10;7
44045;PMS7003;29709;52.396;16.796;2022-11-20T08:37:18;12;9;5
44045;PMS7003;29709;52.396;16.796;2022-11-20T08:40:22;8;7;6
44045;PMS7003;29709;52.396;16.796;2022-11-20T08:43:27;11;11;8
44045;PMS7003;29709;52.396;16.796;2022-11-20T08:46:36;10;9;7
44045;PMS7003;29709;52.396;16.796;2022-11-20T08:49:40;16;12;8
44045;PMS7003;29709;52.396;16.796;2022-11-20T08:53:10;11;11;7
44045;PMS7003;29709;52.396;16.796;2022-11-20T08:56:14;16;15;11
44045;PMS7003;29709;52.396;16.796;2022-11-20T08:59:18;14;9;6
44045;PMS7003;29709;52.396;16.796;2022-11-20T09:02:23;4;2;1
44045;PMS7003;29709;52.396;16.796;2022-11-20T09:05:28;13;12;7
44045;PMS7003;29709;52.396;16.796;2022-11-20T09:08:33;6;5;4
44045;PMS7003;29709;52.396;16.796;2022-11-20T09:11:38;11;7;4
44045;PMS7003;29709;52.396;16.796;2022-11-20T09:14:43;11;9;5
44045;PMS7003;29709;52.396;16.796;2022-11-20T09:18:16;7;6;4
44045;PMS7003;29709;52.396;16.796;2022-11-20T09:21:19;13;11;8
44045;PMS7003;29709;52.396;16.796;2022-11-20T09:24:23;10;9;8
44045;PMS7003;29709;52.396;16.796;2022-11-20T09:27:28;18;14;10
44045;PMS7003;29709;52.396;16.796;2022-11-20T09:30:35;11;10;8
44045;PMS7003;29709;52.396;16.796;2022-11-20T09:33:42;18;12;9
44045;PMS7003;29709;52.396;16.796;2022-11-20T09:36:47;11;9;5
44045;PMS7003;29709;52.396;16.796;2022-11-20T09:39:52;13;10;8
44045;PMS7003;29709;52.396;16.796;2022-11-20T09:43:23;12;11;8
44045;PMS7003;29709;52.396;16.796;2022-11-20T09:46:38;11;10;8
44045;PMS7003;29709;52.396;16.796;2022-11-20T09:56:20;16;13;10
44045;PMS7003;29709;52.396;16.796;2022-11-20T10:03:22;15;13;9
44045;PMS7003;29709;52.396;16.796;2022-11-20T10:06:21;15;13;9
44045;PMS7003;29709;52.396;16.796;2022-11-20T10:09:33;16;13;8
44045;PMS7003;29709;52.396;16.796;2022-11-20T10:19:20;12;9;5
44045;PMS7003;29709;52.396;16.796;2022-11-20T10:25:53;15;14;8
44045;PMS7003;29709;52.396;16.796;2022-11-20T10:29:04;15;13;7
44045;PMS7003;29709;52.396;16.796;2022-11-20T10:32:15;13;13;9
44045;PMS7003;29709;52.396;16.796;2022-11-20T10:35:32;15;12;9
44045;PMS7003;29709;52.396;16.796;2022-11-20T10:38:43;16;13;9
44045;PMS7003;29709;52.396;16.796;2022-11-20T10:41:50;18;15;11
44045;PMS7003;29709;52.396;16.796;2022-11-20T10:44:58;16;12;8
44045;PMS7003;29709;52.396;16.796;2022-11-20T10:48:10;9;7;5
44045;PMS7003;29709;52.396;16.796;2022-11-20T10:58:00;14;12;7
44045;PMS7003;29709;52.396;16.796;2022-11-20T11:01:15;14;11;8
44045;PMS7003;29709;52.396;16.796;2022-11-20T11:07:36;11;9;6
44045;PMS7003;29709;52.396;16.796;2022-11-20T11:20:31;12;11;7
44045;PMS7003;29709;52.396;16.796;2022-11-20T11:24:01;15;10;7
44045;PMS7003;29709;52.396;16.796;2022-11-20T11:27:10;13;12;9
44045;PMS7003;29709;52.396;16.796;2022-11-20T11:30:16;8;7;3
44045;PMS7003;29709;52.396;16.796;2022-11-20T11:33:26;16;13;9
44045;PMS7003;29709;52.396;16.796;2022-11-20T11:36:30;20;16;12
44045;PMS7003;29709;52.396;16.796;2022-11-20T11:39:40;11;10;8
44045;PMS7003;29709;52.396;16.796;2022-11-20T11:46:36;14;13;9
44045;PMS7003;29709;52.396;16.796;2022-11-20T11:49:44;17;14;10
44045;PMS7003;29709;52.396;16.796;2022-11-20T11:52:54;15;12;10
44045;PMS7003;29709;52.396;16.796;2022-11-20T12:05:47;19;16;11
44045;PMS7003;29709;52.396;16.796;2022-11-20T12:09:01;10;8;5
44045;PMS7003;29709;52.396;16.796;2022-11-20T12:12:20;11;9;7
44045;PMS7003;29709;52.396;16.796;2022-11-20T12:15:29;16;13;10
44045;PMS7003;29709;52.396;16.796;2022-11-20T12:18:33;13;11;8
44045;PMS7003;29709;52.396;16.796;2022-11-20T12:25:22;21;17;13
44045;PMS7003;29709;52.396;16.796;2022-11-20T12:28:35;17;15;8
44045;PMS7003;29709;52.396;16.796;2022-11-20T12:41:30;23;18;12
44045;PMS7003;29709;52.396;16.796;2022-11-20T12:51:33;13;11;6
44045;PMS7003;29709;52.396;16.796;2022-11-20T12:54:50;18;16;11
44045;PMS7003;29709;52.396;16.796;2022-11-20T13:01:23;15;12;9
44045;PMS7003;29709;52.396;16.796;2022-11-20T13:04:51;18;16;10
44045;PMS7003;29709;52.396;16.796;2022-11-20T13:08:01;13;10;6
44045;PMS7003;29709;52.396;16.796;2022-11-20T13:11:37;13;12;6
44045;PMS7003;29709;52.396;16.796;2022-11-20T13:14:52;20;17;11
44045;PMS7003;29709;52.396;16.796;2022-11-20T13:18:04;21;19;14
44045;PMS7003;29709;52.396;16.796;2022-11-20T13:21:19;15;11;7
44045;PMS7003;29709;52.396;16.796;2022-11-20T13:24:30;19;13;11
44045;PMS7003;29709;52.396;16.796;2022-11-20T13:34:33;18;13;9
44045;PMS7003;29709;52.396;16.796;2022-11-20T13:37:37;18;13;9
44045;PMS7003;29709;52.396;16.796;2022-11-20T13:43:59;14;14;10
44045;PMS7003;29709;52.396;16.796;2022-11-20T14:00:12;12;10;8
44045;PMS7003;29709;52.396;16.796;2022-11-20T14:03:20;22;21;16
44045;PMS7003;29709;52.396;16.796;2022-11-20T14:06:28;25;22;16
44045;PMS7003;29709;52.396;16.796;2022-11-20T14:09:34;27;26;17
44045;PMS7003;29709;52.396;16.796;2022-11-20T14:16:13;25;20;12
44045;PMS7003;29709;52.396;16.796;2022-11-20T14:19:26;21;17;10
44045;PMS7003;29709;52.396;16.796;2022-11-20T14:22:32;20;18;13
44045;PMS7003;29709;52.396;16.796;2022-11-20T14:25:42;15;15;10
44045;PMS7003;29709;52.396;16.796;2022-11-20T14:28:50;20;15;8
44045;PMS7003;29709;52.396;16.796;2022-11-20T14:31:56;18;16;11
44045;PMS7003;29709;52.396;16.796;2022-11-20T14:35:19;26;22;15
44045;PMS7003;29709;52.396;16.796;2022-11-20T14:38:28;19;19;13
44045;PMS7003;29709;52.396;16.796;2022-11-20T14:41:34;27;24;16
44045;PMS7003;29709;52.396;16.796;2022-11-20T14:45:03;27;26;19
44045;PMS7003;29709;52.396;16.796;2022-11-20T14:48:08;26;21;18
44045;PMS7003;29709;52.396;16.796;2022-11-20T14:54:29;12;6;2
44045;PMS7003;29709;52.396;16.796;2022-11-20T14:57:34;35;31;21
44045;PMS7003;29709;52.396;16.796;2022-11-20T15:00:39;37;29;18
44045;PMS7003;29709;52.396;16.796;2022-11-20T15:03:42;43;36;24
44045;PMS7003;29709;52.396;16.796;2022-11-20T15:07:22;44;34;23
44045;PMS7003;29709;52.396;16.796;2022-11-20T15:10:26;28;24;14
44045;PMS7003;29709;52.396;16.796;2022-11-20T15:13:36;34;29;19
44045;PMS7003;29709;52.396;16.796;2022-11-20T15:16:41;30;26;18
44045;PMS7003;29709;52.396;16.796;2022-11-20T15:19:44;38;30;21
44045;PMS7003;29709;52.396;16.796;2022-11-20T15:22:48;26;23;16
44045;PMS7003;29709;52.396;16.796;2022-11-20T15:25:51;33;24;18
44045;PMS7003;29709;52.396;16.796;2022-11-20T15:28:54;20;19;15
44045;PMS7003;29709;52.396;16.796;2022-11-20T15:32:23;21;19;12
44045;PMS7003;29709;52.396;16.796;2022-11-20T15:35:26;24;22;15
44045;PMS7003;29709;52.396;16.796;2022-11-20T15:38:29;27;26;17
44045;PMS7003;29709;52.396;16.796;2022-11-20T15:41:32;27;24;17
44045;PMS7003;29709;52.396;16.796;2022-11-20T15:44:36;25;21;15
44045;PMS7003;29709;52.396;16.796;2022-11-20T15:47:39;21;17;11
44045;PMS7003;29709;52.396;16.796;2022-11-20T15:50:46;31;26;18
44045;PMS7003;29709;52.396;16.796;2022-11-20T15:53:54;31;29;20
44045;PMS7003;29709;52.396;16.796;2022-11-20T15:56:58;37;30;20
44045;PMS7003;29709;52.396;16.796;2022-11-20T16:00:30;41;34;23
44045;PMS7003;29709;52.396;16.796;2022-11-20T16:03:33;36;30;18
44045;PMS7003;29709;52.396;16.796;2022-11-20T16:06:36;39;30;21
44045;PMS7003;29709;52.396;16.796;2022-11-20T16:09:39;40;33;22
44045;PMS7003;29709;52.396;16.796;2022-11-20T16:12:42;47;36;24
44045;PMS7003;29709;52.396;16.796;2022-11-20T16:15:58;42;33;21
44045;PMS7003;29709;52.396;16.796;2022-11-20T16:19:03;54;43;28
44045;PMS7003;29709;52.396;16.796;2022-11-20T16:22:09;46;38;26
44045;PMS7003;29709;52.396;16.796;2022-11-20T16:25:39;43;34;23
44045;PMS7003;29709;52.396;16.796;2022-11-20T16:28:42;44;36;24
44045;PMS7003;29709;52.396;16.796;2022-11-20T16:31:46;44;35;24
44045;PMS7003;29709;52.396;16.796;2022-11-20T16:34:49;42;32;23
44045;PMS7003;29709;52.396;16.796;2022-11-20T16:37:52;43;33;22
44045;PMS7003;29709;52.396;16.796;2022-11-20T16:40:59;55;42;27
44045;PMS7003;29709;52.396;16.796;2022-11-20T16:44:08;54;40;25
44045;PMS7003;29709;52.396;16.796;2022-11-20T16:47:12;63;48;31
44045;PMS7003;29709;52.396;16.796;2022-11-20T16:50:16;58;44;29
44045;PMS7003;29709;52.396;16.796;2022-11-20T16:53:45;50;40;25
44045;PMS7003;29709;52.396;16.796;2022-11-20T16:56:48;46;37;22
44045;PMS7003;29709;52.396;16.796;2022-11-20T16:59:54;45;35;22
44045;PMS7003;29709;52.396;16.796;2022-11-20T17:02:58;35;26;16
44045;PMS7003;29709;52.396;16.796;2022-11-20T17:06:01;34;28;20
44045;PMS7003;29709;52.396;16.796;2022-11-20T17:09:09;17;12;9
44045;PMS7003;29709;52.396;16.796;2022-11-20T17:12:13;39;29;20
44045;PMS7003;29709;52.396;16.796;2022-11-20T17:15:16;35;27;18
44045;PMS7003;29709;52.396;16.796;2022-11-20T17:18:19;33;27;18
44045;PMS7003;29709;52.396;16.796;2022-11-20T17:21:22;36;29;20
44045;PMS7003;29709;52.396;16.796;2022-11-20T17:24:51;38;32;21
44045;PMS7003;29709;52.396;16.796;2022-11-20T17:27:54;34;29;20
44045;PMS7003;29709;52.396;16.796;2022-11-20T17:30:58;39;33;23
44045;PMS7003;29709;52.396;16.796;2022-11-20T17:34:11;41;33;22
44045;PMS7003;29709;52.396;16.796;2022-11-20T17:37:15;45;35;23
44045;PMS7003;29709;52.396;16.796;2022-11-20T17:40:19;37;31;20
44045;PMS7003;29709;52.396;16.796;2022-11-20T17:43:22;39;31;20
44045;PMS7003;29709;52.396;16.796;2022-11-20T17:46:27;34;29;19
44045;PMS7003;29709;52.396;16.796;2022-11-20T17:50:00;33;30;21
44045;PMS7003;29709;52.396;16.796;2022-11-20T17:53:03;38;32;21
44045;PMS7003;29709;52.396;16.796;2022-11-20T17:56:06;34;27;18
44045;PMS7003;29709;52.396;16.796;2022-11-20T17:59:21;36;30;20
44045;PMS7003;29709;52.396;16.796;2022-11-20T18:02:25;37;32;22
44045;PMS7003;29709;52.396;16.796;2022-11-20T18:05:28;39;34;22
44045;PMS7003;29709;52.396;16.796;2022-11-20T18:08:31;40;32;22
44045;PMS7003;29709;52.396;16.796;2022-11-20T18:11:35;38;34;21
44045;PMS7003;29709;52.396;16.796;2022-11-20T18:15:06;37;31;20
44045;PMS7003;29709;52.396;16.796;2022-11-20T18:18:09;41;32;22
44045;PMS7003;29709;52.396;16.796;2022-11-20T18:21:12;30;25;17
44045;PMS7003;29709;52.396;16.796;2022-11-20T18:24:17;39;32;20
44045;PMS7003;29709;52.396;16.796;2022-11-20T18:27:21;39;32;21
44045;PMS7003;29709;52.396;16.796;2022-11-20T18:30:25;30;26;19
44045;PMS7003;29709;52.396;16.796;2022-11-20T18:33:28;32;29;19
44045;PMS7003;29709;52.396;16.796;2022-11-20T18:36:32;34;28;19
44045;PMS7003;29709;52.396;16.796;2022-11-20T18:39:35;32;29;19
44045;PMS7003;29709;52.396;16.796;2022-11-20T18:42:38;29;27;18
44045;PMS7003;29709;52.396;16.796;2022-11-20T18:46:19;23;20;15
44045;PMS7003;29709;52.396;16.796;2022-11-20T18:49:23;29;23;17
44045;PMS7003;29709;52.396;16.796;2022-11-20T18:52:27;28;23;16
44045;PMS7003;29709;52.396;16.796;2022-11-20T18:55:31;32;28;19
44045;PMS7003;29709;52.396;16.796;2022-11-20T18:58:35;30;27;16
44045;PMS7003;29709;52.396;16.796;2022-11-20T19:01:38;45;36;25
44045;PMS7003;29709;52.396;16.796;2022-11-20T19:04:41;33;29;20
44045;PMS7003;29709;52.396;16.796;2022-11-20T19:07:45;36;29;18
44045;PMS7003;29709;52.396;16.796;2022-11-20T19:10:48;33;29;19
44045;PMS7003;29709;52.396;16.796;2022-11-20T19:13:51;29;25;16
44045;PMS7003;29709;52.396;16.796;2022-11-20T19:17:22;42;33;21
44045;PMS7003;29709;52.396;16.796;2022-11-20T19:20:25;41;32;19
44045;PMS7003;29709;52.396;16.796;2022-11-20T19:23:29;31;25;18
44045;PMS7003;29709;52.396;16.796;2022-11-20T19:26:33;23;19;10
44045;PMS7003;29709;52.396;16.796;2022-11-20T19:29:38;30;26;18
44045;PMS7003;29709;52.396;16.796;2022-11-20T19:32:41;15;11;9
44045;PMS7003;29709;52.396;16.796;2022-11-20T19:35:44;21;20;12
44045;PMS7003;29709;52.396;16.796;2022-11-20T19:38:48;23;21;15
44045;PMS7003;29709;52.396;16.796;2022-11-20T19:41:52;25;22;15
44045;PMS7003;29709;52.396;16.796;2022-11-20T19:44:55;29;23;17
44045;PMS7003;29709;52.396;16.796;2022-11-20T19:48:25;28;25;17
44045;PMS7003;29709;52.396;16.796;2022-11-20T19:51:32;30;21;15
44045;PMS7003;29709;52.396;16.796;2022-11-20T19:54:36;28;23;14
44045;PMS7003;29709;52.396;16.796;2022-11-20T19:57:39;27;21;13
44045;PMS7003;29709;52.396;16.796;2022-11-20T20:00:43;27;22;16
44045;PMS7003;29709;52.396;16.796;2022-11-20T20:03:46;28;24;15
44045;PMS7003;29709;52.396;16.796;2022-11-20T20:06:50;30;26;16
44045;PMS7003;29709;52.396;16.796;2022-11-20T20:09:53;27;22;16
44045;PMS7003;29709;52.396;16.796;2022-11-20T20:12:56;22;20;13
44045;PMS7003;29709;52.396;16.796;2022-11-20T20:15:59;27;23;15
44045;PMS7003;29709;52.396;16.796;2022-11-20T20:19:28;26;20;13
44045;PMS7003;29709;52.396;16.796;2022-11-20T20:22:31;24;20;14
44045;PMS7003;29709;52.396;16.796;2022-11-20T20:25:36;25;21;14
44045;PMS7003;29709;52.396;16.796;2022-11-20T20:28:40;22;22;14
44045;PMS7003;29709;52.396;16.796;2022-11-20T20:31:43;23;22;12
44045;PMS7003;29709;52.396;16.796;2022-11-20T20:34:46;23;22;14
44045;PMS7003;29709;52.396;16.796;2022-11-20T20:37:49;28;24;14
44045;PMS7003;29709;52.396;16.796;2022-11-20T20:40:52;23;19;14
44045;PMS7003;29709;52.396;16.796;2022-11-20T20:43:55;15;13;7
44045;PMS7003;29709;52.396;16.796;2022-11-20T20:47:37;30;24;16
44045;PMS7003;29709;52.396;16.796;2022-11-20T20:50:42;25;22;15
44045;PMS7003;29709;52.396;16.796;2022-11-20T20:53:45;25;23;17
44045;PMS7003;29709;52.396;16.796;2022-11-20T20:56:49;27;21;14
44045;PMS7003;29709;52.396;16.796;2022-11-20T20:59:53;28;24;18
44045;PMS7003;29709;52.396;16.796;2022-11-20T21:02:59;23;22;14
44045;PMS7003;29709;52.396;16.796;2022-11-20T21:06:02;32;25;17
44045;PMS7003;29709;52.396;16.796;2022-11-20T21:09:07;21;17;7
44045;PMS7003;29709;52.396;16.796;2022-11-20T21:12:10;21;17;11
44045;PMS7003;29709;52.396;16.796;2022-11-20T21:15:40;22;20;14
44045;PMS7003;29709;52.396;16.796;2022-11-20T21:18:44;24;21;15
44045;PMS7003;29709;52.396;16.796;2022-11-20T21:21:48;28;23;17
44045;PMS7003;29709;52.396;16.796;2022-11-20T21:25:00;27;26;17
44045;PMS7003;29709;52.396;16.796;2022-11-20T21:28:03;29;23;14
44045;PMS7003;29709;52.396;16.796;2022-11-20T21:31:11;23;19;12
44045;PMS7003;29709;52.396;16.796;2022-11-20T21:34:17;28;20;11
44045;PMS7003;29709;52.396;16.796;2022-11-20T21:37:20;25;21;16
44045;PMS7003;29709;52.396;16.796;2022-11-20T21:40:49;24;20;14
44045;PMS7003;29709;52.396;16.796;2022-11-20T21:43:52;22;19;11
44045;PMS7003;29709;52.396;16.796;2022-11-20T21:46:57;24;24;16
44045;PMS7003;29709;52.396;16.796;2022-11-20T21:50:00;24;21;14
44045;PMS7003;29709;52.396;16.796;2022-11-20T21:53:03;26;22;14
44045;PMS7003;29709;52.396;16.796;2022-11-20T21:56:24;24;21;13
44045;PMS7003;29709;52.396;16.796;2022-11-20T21:59:28;24;22;16
44045;PMS7003;29709;52.396;16.796;2022-11-20T22:02:31;28;22;15
44045;PMS7003;29709;52.396;16.796;2022-11-20T22:05:34;20;18;12
44045;PMS7003;29709;52.396;16.796;2022-11-20T22:08:37;23;21;16